x

Boston 16 Nm East Of Boston, Ma (44013) Wave Buoy

7:50am - Mon 20th Nov 2017 All times are EST. -5 hours from GMT.

  • Sig Wave height 3.9ft
  • Swell Direction
  • Peak Period 4s
  • Average Period 4s
  • Wind
    34mph, 43mph gusts
  • Sea Temp 50°f
  • Air Temp 38°f
  • Sea Pressure 1008.7mb
  • Boston 16 Nm East Of Boston, Ma
  • Boston 16 Nm East Of Boston, Ma

More Historic Weather Station data

Upgrade to MSW Pro to gain access to the past 30 days of data for over 8000 Wavebouys and Weather Stations around the globe.

Join

Comparision Forecast

View Surf forecast
   
Mon 11/20 7:50am 4ft 4s 4s 34 43 mph 1008.7mb 50f 38f
6:50am 3.5ft 4s 4s 29 36 mph 1007.6mb 50f 39f
5:50am 3.5ft 4s 4s 27 34 mph 1006.8mb 50f 39f
4:50am 3.5ft 4s 4s 25 31 mph 1006mb 50f 39f
3:50am 3.5ft 4s 4s 27 34 mph 1004.9mb 50f 40f
2:50am 3ft 4s 4s 27 31 mph 1004.1mb 50f 40f
1:50am 3.5ft 4s 4s 27 34 mph 1003.3mb 50f 41f
12:50am 3ft 4s 4s 27 34 mph 1002.2mb 50f 41f
Sun 11/19 11:50pm 3ft 4s 4s 27 34 mph 1001.7mb 50f 41f
10:50pm 3.5ft 4s 4s 25 31 mph 1001.3mb 50f 41f
9:50pm 3.5ft 5s 4s 25 31 mph 1000.9mb 50f 42f
8:50pm 3.5ft 4s 4s 22 29 mph 1000.1mb 51f 42f
7:50pm 4ft 5s 4s 29 36 mph 999mb 51f 42f
6:50pm 4ft 4s 4s 31 36 mph 997.8mb 51f 43f
5:50pm 4.5ft 5s 4s 29 36 mph 996.6mb 51f 44f
4:50pm 5ft 5s 4s 34 40 mph 994.5mb 51f 45f
3:50pm 5ft 5s 4s 36 45 mph 992.3mb 51f 47f
2:50pm 5ft 5s 4s 36 43 mph 990.1mb 51f 48f
1:50pm 5ft 5s 4s 34 43 mph 988.2mb 51f 49f
12:50pm 3.5ft 3s 3s 36 43 mph 986.4mb 51f 50f
11:50am 3.5ft 4s 4s 18 22 mph 985mb 51f 57f
10:50am 3.5ft 5s 4s 22 27 mph 985.2mb 51f 57f
9:50am 3.5ft 5s 4s 22 27 mph 986.2mb 51f 57f
8:50am 4ft 5s 4s 25 27 mph 987.4mb 51f 57f
7:50am 3.5ft 5s 4s 20 22 mph 987.8mb 51f 57f
6:50am 3ft 5s 4s 22 29 mph 989mb 51f 58f
5:50am 3.5ft 4s 4s 22 25 mph 989.7mb 51f 57f
4:50am 2.5ft 4s 3s 22 29 mph 990.8mb 51f 59f
3:50am 2.5ft 4s 4s 22 29 mph 992mb 51f 58f
2:50am 1.6ft 4s 4s 18 22 mph 993.2mb 51f 56f
1:50am 1.6ft 3s 3s 11 13 mph 995mb 51f 53f
12:50am 1.6ft 4s 3s 11 13 mph 996.1mb 51f 53f
Sat 11/18 11:50pm 2ft 4s 3s 18 20 mph 997.7mb 51f 54f
10:50pm 2ft 3s 3s 13 16 mph 998.4mb 51f 52f
9:50pm 1.6ft 3s 3s 11 13 mph 999.9mb 51f 52f
8:50pm 2ft 3s 3s 13 18 mph 1001.3mb 51f 52f
7:50pm 2ft 3s 3s 13 18 mph 1002.5mb 51f 51f
6:50pm 1.6ft 3s 3s 16 18 mph 1003.5mb 51f 51f
5:50pm 1.6ft 3s 3s 13 16 mph 1004.6mb 51f 50f
4:50pm 1.3ft 3s 3s 11 13 mph 1005.4mb 51f 48f
3:50pm 1ft 10s 4s 11 13 mph 1006.1mb 51f 48f
2:50pm 1ft 10s 4s 11 11 mph 1007.4mb 51f 46f
1:50pm 1.3ft 10s 3s 13 16 mph 1008.5mb 51f 46f
12:50pm 1ft 11s 3s 11 13 mph 1009mb 51f 44f
11:50am 1ft 11s 5s 11 13 mph 1010.3mb 51f 43f
10:50am 1ft 11s 4s 7 9 mph 1011.7mb 50f 41f
9:50am 1ft 11s 4s 4 7 mph 1012.8mb 50f 40f
8:50am 1.3ft 11s 4s 7 11 mph 1013.4mb 50f 39f
7:50am 1.6ft 10s 4s 9 11 mph 1014.3mb 50f 38f
6:50am 1.6ft 3s 3s 11 16 mph 1013.9mb 50f 37f
5:50am 1.6ft 11s 3s 13 18 mph 1014mb 51f 37f
4:50am 2ft 3s 3s 13 16 mph 1014mb 51f 37f
3:50am 2ft 3s 3s 13 18 mph 1013.8mb 51f 37f
2:50am 2.5ft 3s 3s 13 16 mph 1014.1mb 51f 36f
1:50am 3ft 4s 4s 20 25 mph 1014.1mb 51f 37f
12:50am 3ft 4s 4s 22 27 mph 1013.7mb 51f 37f
Fri 11/17 11:50pm 3.5ft 4s 4s 25 31 mph 1013.2mb 51f 38f
10:50pm 3.5ft 4s 4s 22 29 mph 1013.2mb 51f 39f
9:50pm 3.5ft 4s 4s 25 29 mph 1013.3mb 51f 40f
8:50pm 3.5ft 4s 4s 27 31 mph 1013.3mb 51f 40f
7:50pm 3ft 4s 4s 27 34 mph 1013.1mb 51f 41f
6:50pm 3.5ft 4s 4s 27 29 mph 1012.6mb 51f 42f
5:50pm 3.5ft 4s 4s 27 31 mph 1012.7mb 51f 42f
4:50pm 4ft 4s 4s 27 31 mph 1012.1mb 51f 42f
3:50pm 4ft 4s 4s 27 34 mph 1010.8mb 51f 43f
2:50pm 4ft 4s 4s 25 29 mph 1010.2mb 51f 42f
1:50pm 4.5ft 4s 4s 29 36 mph 1009.7mb 51f 42f
12:50pm 5ft 5s 4s 29 34 mph 1009.1mb 51f 41f
11:50am 5.5ft 5s 4s 29 36 mph 1009.3mb 51f 42f
10:50am 5ft 5s 4s 29 36 mph 1009.3mb 51f 41f
9:50am 5ft 5s 4s 29 34 mph 1009.4mb 51f 41f
8:50am 4.5ft 5s 4s 29 36 mph 1008.9mb 51f 41f
7:50am 4.5ft 5s 4s 27 34 mph 1008mb 51f 42f
6:50am 4.5ft 4s 4s 31 38 mph 1006.8mb 51f 42f
5:50am 4.5ft 4s 5s 31 38 mph 1005.9mb 51f 42f
4:50am 4.5ft 9s 4s 27 34 mph 1005.4mb 51f 43f
3:50am 4.5ft 11s 4s 27 31 mph 1004.6mb 51f 44f
2:50am 4ft 11s 4s 29 36 mph 1004.1mb 51f 44f
1:50am 4.5ft 11s 4s 27 34 mph 1003.8mb 51f 45f
12:50am 4.5ft 12s 5s 25 31 mph 1003.3mb 51f 46f
Thu 11/16 11:50pm 4.5ft 11s 5s 25 31 mph 1003.4mb 51f 46f
10:50pm 4.5ft 12s 5s 27 34 mph 1003.3mb 51f 47f
9:50pm 4.5ft 11s 4s 22 27 mph 1003.5mb 51f 47f
8:50pm 4.5ft 11s 5s 25 29 mph 1003.5mb 51f 47f
7:50pm 5ft 13s 5s 27 31 mph 1003.4mb 51f 47f
6:50pm 5ft 12s 6s 25 34 mph 1003.9mb 51f 47f
5:50pm 5ft 9s 6s 11 13 mph 1003.8mb 51f 49f
4:50pm 5.5ft 10s 6s 7 9 mph 1004mb 51f 49f
3:50pm 6ft 11s 6s 9 11 mph 1004.6mb 51f 49f
2:50pm 6.5ft 11s 5s 16 20 mph 1004.7mb 51f 49f
1:50pm 6.5ft 11s 6s 27 31 mph 1004.7mb 51f 49f